logo
Search for airport 
image banner adimage banner adimage banner ad
image banner ad

SJEA - Cadete 56 - 147 Santana

Located in Palmeirópolis, Brazil

ICAO - SJEA, IATA -

Data provided by Airmate  

General information

Coordinates: S12°51'0" W48°13'31"
Elevation is 984 feet MSL.
Magnetic variation is -21° East
View others Airports in Tocatins

Operational data

Special qualification required
Current time UTC:
Current local time:
Weather at : - ( 0 km )
METAR: CYZY 140427Z AUTO VRB02KT 9SM OVC160 03/M08 A2991 RMK ICE SLP158
View NOTAMs / SUP AIP / TFR affecting this airport [VIEW]
Communications frequencies: [VIEW]

Runways:

RWY identifierQFULength (ft)Width (ft)SurfaceLDA (ft)
08360998GRAVEL
26360998GRAVEL

Airport contact information

Address: Palmeirópolis Brazil

Satellite view of SJEA